createdAt,value
2017-11-28T00:02:23.205Z,2.33
2017-11-28T00:04:49.480Z,2.87
2017-11-28T00:07:15.718Z,2.90
2017-11-28T00:09:41.957Z,2.78
2017-11-28T00:12:08.224Z,2.70
2017-11-28T00:14:34.493Z,3.72
2017-11-28T00:17:01.195Z,2.67
2017-11-28T00:19:27.435Z,2.65
2017-11-28T00:21:53.678Z,2.62
2017-11-28T00:24:19.934Z,2.50
2017-11-28T00:26:46.210Z,3.05
2017-11-28T00:29:12.498Z,2.35
2017-11-28T00:31:38.757Z,2.12
2017-11-28T00:34:05.010Z,3.90
2017-11-28T00:36:31.226Z,2.12
2017-11-28T00:38:57.495Z,8.35
2017-11-28T00:41:23.734Z,2.70
2017-11-28T00:43:50.039Z,2.15
2017-11-28T00:46:16.661Z,3.90
2017-11-28T00:48:42.911Z,1.85
2017-11-28T00:51:09.518Z,2.50
2017-11-28T00:53:35.768Z,3.55
2017-11-28T00:56:02.382Z,1.60
2017-11-28T00:58:28.650Z,1.87
2017-11-28T01:00:54.906Z,3.15
2017-11-28T01:03:21.157Z,3.65
2017-11-28T01:05:47.417Z,2.25
2017-11-28T01:08:13.684Z,1.70
2017-11-28T01:10:39.958Z,1.80
2017-11-28T01:13:06.206Z,1.85
2017-11-28T01:15:32.814Z,3.00
2017-11-28T01:17:59.072Z,1.90
2017-11-28T01:20:25.732Z,4.85
2017-11-28T01:22:51.953Z,1.60
2017-11-28T01:25:18.210Z,2.20
2017-11-28T01:27:44.452Z,2.05
2017-11-28T01:30:10.738Z,2.08
2017-11-28T01:32:36.970Z,2.70
2017-11-28T01:35:03.223Z,3.33
2017-11-28T01:37:29.503Z,1.83
2017-11-28T01:39:56.121Z,1.60
2017-11-28T01:42:22.368Z,2.20
2017-11-28T01:44:48.985Z,1.60
2017-11-28T01:47:15.226Z,1.98
2017-11-28T01:49:41.463Z,1.70
2017-11-28T01:52:07.714Z,2.10
2017-11-28T01:54:33.959Z,2.83
2017-11-28T01:57:00.205Z,3.90
2017-11-28T01:59:26.475Z,2.25
2017-11-28T02:01:53.143Z,2.37
2017-11-28T02:04:19.384Z,2.30
2017-11-28T02:06:45.662Z,1.80
2017-11-28T02:09:11.938Z,2.35
2017-11-28T02:11:38.166Z,3.08
2017-11-28T02:14:04.380Z,4.53
2017-11-28T02:16:30.660Z,1.70
2017-11-28T02:18:56.930Z,2.45
2017-11-28T02:21:23.193Z,1.90
2017-11-28T02:23:49.441Z,3.33
2017-11-28T02:26:15.709Z,2.72
2017-11-28T02:28:42.351Z,4.55
2017-11-28T02:31:08.975Z,1.75
2017-11-28T02:33:35.629Z,2.10
2017-11-28T02:36:01.865Z,2.85
2017-11-28T02:38:28.097Z,2.42
2017-11-28T02:41:06.535Z,2.55
2017-11-28T02:43:32.802Z,1.85
2017-11-28T02:45:59.039Z,2.70
2017-11-28T02:48:25.291Z,2.08
2017-11-28T02:50:52.510Z,2.60
2017-11-28T02:53:19.167Z,2.42
2017-11-28T02:55:57.506Z,3.15
2017-11-28T02:58:36.397Z,2.08
2017-11-28T03:01:21.690Z,1.70
2017-11-28T03:03:47.961Z,2.12
2017-11-28T03:06:14.210Z,3.20
2017-11-28T03:08:40.472Z,3.30
2017-11-28T03:11:06.700Z,1.70
2017-11-28T03:13:32.953Z,1.60
2017-11-28T03:16:09.908Z,2.58
2017-11-28T03:18:46.956Z,1.85
2017-11-28T03:21:14.240Z,2.22
2017-11-28T03:23:46.973Z,2.83
2017-11-28T03:26:13.198Z,1.95
2017-11-28T03:31:34.344Z,1.92
2017-11-28T03:34:03.484Z,2.92
2017-11-28T03:36:29.735Z,3.33
2017-11-28T03:38:56.003Z,2.35
2017-11-28T03:41:22.262Z,4.72
2017-11-28T03:43:48.556Z,2.90
2017-11-28T03:46:16.754Z,3.67
2017-11-28T03:48:45.181Z,3.12
2017-11-28T03:51:11.452Z,5.35
2017-11-28T03:53:37.703Z,6.00
2017-11-28T03:56:03.977Z,3.90
2017-11-28T03:58:30.271Z,5.43
2017-11-28T04:00:56.523Z,3.87
2017-11-28T04:03:22.777Z,2.70
2017-11-28T04:05:49.064Z,4.68
2017-11-28T04:08:15.328Z,5.32
2017-11-28T04:10:41.574Z,3.37
2017-11-28T04:13:07.826Z,2.53
2017-11-28T04:15:34.428Z,3.20
2017-11-28T04:18:00.662Z,2.95
2017-11-28T04:20:26.978Z,3.28
2017-11-28T04:22:53.235Z,5.80
2017-11-28T04:25:19.480Z,4.30
2017-11-28T04:27:46.089Z,2.40
2017-11-28T04:30:12.324Z,4.60
2017-11-28T04:32:38.542Z,3.00
2017-11-28T04:35:04.777Z,3.25
2017-11-28T04:37:31.053Z,3.97
2017-11-28T04:39:57.306Z,5.22
2017-11-28T04:42:23.527Z,4.80
2017-11-28T04:44:49.783Z,7.65
2017-11-28T04:47:16.014Z,4.65
2017-11-28T04:49:42.269Z,5.90
2017-11-28T04:52:08.891Z,3.25
2017-11-28T04:54:35.519Z,3.72
2017-11-28T04:57:01.758Z,4.43
2017-11-28T04:59:28.396Z,5.75
2017-11-28T05:01:55.011Z,6.30
2017-11-28T05:04:21.265Z,2.97
2017-11-28T05:06:47.880Z,4.10
2017-11-28T05:09:14.107Z,4.90
2017-11-28T05:11:40.337Z,3.05
2017-11-28T05:14:06.604Z,4.00
2017-11-28T05:16:32.830Z,4.85
2017-11-28T05:18:59.084Z,3.25
2017-11-28T05:21:25.323Z,3.08
2017-11-28T05:23:51.588Z,4.87
2017-11-28T05:26:17.813Z,3.28
2017-11-28T05:28:44.057Z,3.08
2017-11-28T05:31:10.337Z,3.42
2017-11-28T05:33:36.578Z,5.47
2017-11-28T05:36:02.828Z,2.92
2017-11-28T05:38:29.107Z,5.95
2017-11-28T05:40:55.355Z,4.72
2017-11-28T05:43:21.670Z,2.92
2017-11-28T05:45:50.721Z,3.35
2017-11-28T05:48:17.331Z,3.78
2017-11-28T05:50:43.561Z,3.22
2017-11-28T05:53:09.811Z,4.22
2017-11-28T05:55:36.060Z,2.62
2017-11-28T05:58:02.275Z,2.58
2017-11-28T06:00:28.518Z,3.12
2017-11-28T06:02:54.792Z,3.47
2017-11-28T06:05:21.049Z,3.22
2017-11-28T06:07:47.306Z,6.35
2017-11-28T06:10:13.574Z,3.03
2017-11-28T06:12:39.814Z,2.40
2017-11-28T06:15:06.075Z,2.83
2017-11-28T06:17:32.315Z,3.50
2017-11-28T06:19:58.585Z,4.07
2017-11-28T06:22:24.813Z,3.90
2017-11-28T06:24:51.066Z,3.33
2017-11-28T06:27:17.297Z,3.90
2017-11-28T06:29:43.561Z,2.85
2017-11-28T06:32:09.825Z,4.57
2017-11-28T06:34:36.057Z,3.85
2017-11-28T06:37:02.349Z,2.30
2017-11-28T06:39:31.244Z,2.90
2017-11-28T06:41:57.506Z,4.90
2017-11-28T06:44:23.765Z,3.00
2017-11-28T06:46:50.104Z,2.75
2017-11-28T06:49:16.415Z,5.40
2017-11-28T06:51:42.655Z,4.10
2017-11-28T06:54:08.941Z,2.97
2017-11-28T06:56:35.517Z,3.28
2017-11-28T06:59:01.749Z,2.62
2017-11-28T07:01:28.040Z,4.65
2017-11-28T07:03:54.313Z,4.18
2017-11-28T07:06:20.580Z,2.15
2017-11-28T07:08:46.822Z,2.90
2017-11-28T07:11:13.085Z,2.55
2017-11-28T07:13:39.339Z,4.00
2017-11-28T07:16:05.987Z,4.22
2017-11-28T07:18:32.249Z,4.15
2017-11-28T07:20:58.515Z,2.47
2017-11-28T07:23:24.766Z,3.83
2017-11-28T07:25:51.473Z,3.92
2017-11-28T07:28:17.710Z,5.68
2017-11-28T07:30:44.015Z,2.60
2017-11-28T07:33:10.279Z,4.82
2017-11-28T07:35:36.508Z,3.10
2017-11-28T07:38:02.789Z,3.17
2017-11-28T07:40:29.038Z,2.87
2017-11-28T07:42:55.303Z,3.15
2017-11-28T07:45:21.913Z,2.62
2017-11-28T07:47:48.169Z,5.40
2017-11-28T07:50:14.810Z,4.07
2017-11-28T07:52:41.093Z,7.18
2017-11-28T07:55:07.312Z,2.60
2017-11-28T07:57:33.552Z,2.90
2017-11-28T07:59:59.792Z,3.40
2017-11-28T08:02:26.025Z,2.72
2017-11-28T08:04:52.285Z,2.97
2017-11-28T08:07:18.579Z,4.57
2017-11-28T08:09:44.823Z,2.00
2017-11-28T08:12:11.099Z,3.30
2017-11-28T08:14:37.355Z,2.65
2017-11-28T08:17:03.905Z,3.42
2017-11-28T08:19:30.171Z,4.22
2017-11-28T08:21:56.438Z,5.32
2017-11-28T08:24:22.715Z,4.80
2017-11-28T08:26:49.006Z,5.50
2017-11-28T08:29:15.269Z,2.40
2017-11-28T08:31:42.867Z,4.62
2017-11-28T08:34:09.131Z,7.22
2017-11-28T08:36:35.389Z,6.43
2017-11-28T08:39:02.042Z,5.00
2017-11-28T08:41:28.302Z,6.50
2017-11-28T08:43:54.617Z,6.93
2017-11-28T08:46:20.859Z,2.90
2017-11-28T08:48:47.171Z,2.70
2017-11-28T08:51:13.464Z,2.92
2017-11-28T08:53:39.761Z,3.12
2017-11-28T08:56:06.010Z,2.95
2017-11-28T08:58:32.286Z,3.20
2017-11-28T09:00:58.546Z,2.28
2017-11-28T09:03:24.768Z,4.10
2017-11-28T09:05:51.320Z,4.75
2017-11-28T09:08:17.579Z,2.40
2017-11-28T09:10:44.214Z,3.17
2017-11-28T09:13:10.867Z,3.58
2017-11-28T09:15:37.121Z,3.33
2017-11-28T09:18:03.347Z,2.20
2017-11-28T09:20:29.626Z,3.90
2017-11-28T09:22:55.911Z,6.00
2017-11-28T09:25:22.201Z,3.22
2017-11-28T09:27:48.793Z,2.80
2017-11-28T09:30:15.111Z,2.65
2017-11-28T09:32:41.380Z,2.37
2017-11-28T09:35:07.635Z,2.65
2017-11-28T09:37:33.881Z,2.72
2017-11-28T09:40:00.134Z,3.20
2017-11-28T09:42:26.391Z,2.60
2017-11-28T09:44:52.640Z,3.78
2017-11-28T09:47:19.235Z,2.90
2017-11-28T09:49:45.501Z,4.03
2017-11-28T09:52:12.089Z,5.10
2017-11-28T09:54:38.345Z,2.83
2017-11-28T09:57:04.618Z,3.80
2017-11-28T09:59:30.878Z,2.90
2017-11-28T10:01:57.118Z,4.25
2017-11-28T10:04:23.415Z,3.40
2017-11-28T10:06:49.713Z,3.92
2017-11-28T10:09:16.730Z,4.90
2017-11-28T10:11:42.997Z,5.40
2017-11-28T10:14:09.607Z,5.20
2017-11-28T10:16:35.867Z,7.40
2017-11-28T10:19:02.179Z,7.30
2017-11-28T10:21:28.437Z,8.43
2017-11-28T10:23:54.666Z,4.95
2017-11-28T10:26:20.913Z,4.07
2017-11-28T10:28:47.158Z,4.45
2017-11-28T10:31:13.421Z,5.25
2017-11-28T10:33:40.035Z,3.35
2017-11-28T10:36:06.292Z,4.32
2017-11-28T10:38:32.939Z,5.07
2017-11-28T10:40:59.208Z,7.15
2017-11-28T10:43:25.477Z,4.30
2017-11-28T10:45:52.095Z,4.05
2017-11-28T10:48:18.332Z,3.65
2017-11-28T10:50:44.588Z,6.07
2017-11-28T10:53:10.847Z,4.18
2017-11-28T10:55:37.093Z,4.53
2017-11-28T10:58:03.405Z,4.43
2017-11-28T11:00:29.665Z,4.62
2017-11-28T11:02:55.931Z,4.20
2017-11-28T11:05:22.197Z,4.40
2017-11-28T11:07:48.487Z,3.80
2017-11-28T11:10:15.095Z,5.05
2017-11-28T11:12:41.382Z,4.60
2017-11-28T11:15:07.630Z,4.05
2017-11-28T11:17:33.876Z,4.82
2017-11-28T11:20:00.112Z,4.03
2017-11-28T11:22:26.363Z,4.55
2017-11-28T11:24:52.642Z,3.40
2017-11-28T11:27:18.866Z,3.70
2017-11-28T11:29:45.151Z,3.70
2017-11-28T11:32:11.786Z,2.85
2017-11-28T11:34:38.460Z,3.05
2017-11-28T11:37:04.696Z,3.75
2017-11-28T11:39:30.980Z,3.42
2017-11-28T11:41:57.245Z,4.32
2017-11-28T11:44:23.580Z,3.00
2017-11-28T11:46:49.870Z,3.60
2017-11-28T11:49:16.138Z,4.65
2017-11-28T11:51:42.391Z,6.50
2017-11-28T11:54:08.642Z,4.05
2017-11-28T11:56:34.883Z,3.72
2017-11-28T11:59:01.570Z,4.15
2017-11-28T12:01:28.553Z,2.78
2017-11-28T12:03:54.807Z,3.62
2017-11-28T12:06:21.117Z,6.32
2017-11-28T12:08:47.799Z,3.45
2017-11-28T12:11:14.074Z,3.45
2017-11-28T12:13:40.317Z,2.62
2017-11-28T12:16:06.926Z,5.15
2017-11-28T12:18:33.247Z,4.80
2017-11-28T12:20:59.547Z,2.60
2017-11-28T12:23:25.821Z,3.55
2017-11-28T12:25:52.110Z,3.55
2017-11-28T12:28:18.359Z,3.17
2017-11-28T12:30:44.621Z,3.53
2017-11-28T12:33:10.869Z,2.65
2017-11-28T12:35:37.155Z,3.75
2017-11-28T12:38:03.410Z,2.50
2017-11-28T12:40:29.716Z,3.25
2017-11-28T12:42:56.011Z,3.00
2017-11-28T12:45:22.255Z,3.58
2017-11-28T12:47:48.605Z,3.80
2017-11-28T12:50:14.921Z,3.30
2017-11-28T12:52:41.207Z,4.60
2017-11-28T12:55:07.832Z,2.70
2017-11-28T12:57:34.506Z,2.40
2017-11-28T13:00:00.784Z,3.08
2017-11-28T13:02:26.997Z,3.33
2017-11-28T13:04:53.306Z,2.92
2017-11-28T13:07:19.576Z,4.53
2017-11-28T13:09:45.832Z,2.80
2017-11-28T13:12:12.128Z,4.22
2017-11-28T13:14:38.372Z,3.00
2017-11-28T13:17:05.006Z,3.00
2017-11-28T13:19:31.253Z,3.78
2017-11-28T13:21:57.924Z,3.60
2017-11-28T13:24:24.158Z,5.60
2017-11-28T13:26:50.461Z,4.22
2017-11-28T13:29:16.730Z,4.00
2017-11-28T13:31:42.999Z,3.85
2017-11-28T13:34:09.267Z,3.00
2017-11-28T13:36:35.619Z,3.17
2017-11-28T13:39:01.865Z,3.72
2017-11-28T13:41:28.186Z,4.20
2017-11-28T13:43:54.447Z,6.68
2017-11-28T13:46:21.121Z,3.90
2017-11-28T13:48:47.373Z,3.33
2017-11-28T13:51:13.589Z,3.03
2017-11-28T13:53:39.905Z,3.83
2017-11-28T13:56:06.241Z,4.35
2017-11-28T13:58:32.484Z,5.60
2017-11-28T14:00:58.766Z,4.10
2017-11-28T14:03:25.097Z,3.85
2017-11-28T14:05:51.358Z,4.70
2017-11-28T14:08:17.604Z,5.70
2017-11-28T14:10:43.830Z,5.40
2017-11-28T14:13:10.095Z,6.32
2017-11-28T14:15:36.339Z,6.50
2017-11-28T14:18:02.639Z,6.97
2017-11-28T14:20:34.902Z,6.93
2017-11-28T14:25:59.287Z,6.20
2017-11-28T14:28:27.431Z,6.70
2017-11-28T14:30:59.886Z,5.25
2017-11-28T14:33:26.559Z,5.15
2017-11-28T14:35:57.723Z,4.43
2017-11-28T14:38:24.031Z,4.50
2017-11-28T14:40:54.227Z,4.57
2017-11-28T14:43:26.376Z,4.47
2017-11-28T14:46:08.845Z,4.20
2017-11-28T14:48:35.163Z,4.18
2017-11-28T14:51:07.397Z,4.12
2017-11-28T14:53:39.711Z,3.30
2017-11-28T14:56:20.930Z,3.95
2017-11-28T14:58:53.479Z,5.07
2017-11-28T15:01:22.672Z,5.22
2017-11-28T15:03:54.971Z,6.80
2017-11-28T15:06:23.558Z,5.35
2017-11-28T15:08:56.515Z,5.40
2017-11-28T15:11:39.538Z,5.00
2017-11-28T15:14:05.855Z,3.20
2017-11-28T15:16:38.204Z,3.62
2017-11-28T15:19:15.318Z,4.60
2017-11-28T15:21:43.552Z,3.50
2017-11-28T15:24:12.663Z,3.25
2017-11-28T15:26:43.953Z,3.15
2017-11-28T15:29:14.219Z,4.22
2017-11-28T15:31:40.542Z,4.85
2017-11-28T15:34:06.814Z,5.78
2017-11-28T15:36:33.150Z,5.60
2017-11-28T15:38:59.426Z,4.53
2017-11-28T15:41:25.706Z,3.72
2017-11-28T15:43:52.013Z,4.10
2017-11-28T15:46:18.283Z,3.78
2017-11-28T15:48:44.562Z,3.33
2017-11-28T15:51:10.835Z,3.08
2017-11-28T15:53:37.529Z,3.67
2017-11-28T15:56:03.810Z,4.07
2017-11-28T15:58:30.093Z,3.50
2017-11-28T16:00:56.326Z,3.70
2017-11-28T16:03:22.646Z,3.72
2017-11-28T16:05:48.922Z,4.15
2017-11-28T16:08:15.180Z,2.92
2017-11-28T16:10:41.476Z,3.28
2017-11-28T16:13:07.731Z,4.15
2017-11-28T16:15:34.402Z,5.35
2017-11-28T16:18:00.647Z,5.28
2017-11-28T16:20:26.961Z,3.40
2017-11-28T16:22:53.240Z,4.05
2017-11-28T16:25:19.482Z,4.18
2017-11-28T16:27:46.137Z,4.68
2017-11-28T16:30:12.424Z,5.62
2017-11-28T16:32:38.697Z,4.90
2017-11-28T16:35:04.968Z,4.57
2017-11-28T16:37:31.256Z,4.65
2017-11-28T16:39:58.408Z,5.47
2017-11-28T16:42:24.674Z,5.55
2017-11-28T16:44:50.998Z,5.45
2017-11-28T16:47:17.262Z,7.60
2017-11-28T16:49:44.149Z,6.05
2017-11-28T16:52:10.405Z,8.23
2017-11-28T16:54:36.682Z,6.43
2017-11-28T16:57:03.355Z,8.07
2017-11-28T16:59:30.174Z,6.45
2017-11-28T17:01:56.546Z,5.90
2017-11-28T17:04:22.866Z,6.07
2017-11-28T17:06:49.210Z,8.32
2017-11-28T17:09:15.560Z,7.90
2017-11-28T17:11:41.843Z,9.63
2017-11-28T17:14:08.154Z,12.77
2017-11-28T17:16:34.432Z,14.73
2017-11-28T17:19:00.776Z,12.73
2017-11-28T17:21:27.107Z,14.25
2017-11-28T17:23:53.422Z,11.80
2017-11-28T17:26:19.677Z,11.52
2017-11-28T17:28:45.965Z,10.32
2017-11-28T17:31:12.254Z,10.00
2017-11-28T17:33:38.523Z,9.85
2017-11-28T17:36:04.838Z,10.70
2017-11-28T17:38:31.130Z,10.73
2017-11-28T17:40:57.389Z,10.27
2017-11-28T17:43:23.649Z,10.75
2017-11-28T17:45:49.899Z,8.93
2017-11-28T17:48:16.168Z,7.90
2017-11-28T17:50:42.485Z,10.27
2017-11-28T17:53:08.814Z,13.73
2017-11-28T17:55:35.535Z,14.55
2017-11-28T17:58:01.931Z,17.23
2017-11-28T18:00:28.255Z,14.02
2017-11-28T18:02:54.646Z,14.50
2017-11-28T18:05:20.990Z,11.95
2017-11-28T18:07:47.267Z,12.18
2017-11-28T18:10:13.571Z,11.00
2017-11-28T18:12:39.842Z,9.35
2017-11-28T18:15:06.102Z,9.93
2017-11-28T18:17:32.365Z,10.07
2017-11-28T18:19:58.683Z,10.35
2017-11-28T18:22:24.961Z,10.50
2017-11-28T18:24:51.258Z,11.57
2017-11-28T18:27:17.523Z,9.63
2017-11-28T18:29:43.823Z,9.77
2017-11-28T18:32:10.136Z,8.90
2017-11-28T18:34:36.433Z,9.38
2017-11-28T18:37:03.155Z,8.95
2017-11-28T18:39:29.807Z,10.45
2017-11-28T18:41:56.144Z,11.02
2017-11-28T18:44:22.397Z,10.93
2017-11-28T18:46:48.709Z,10.05
2017-11-28T18:49:14.972Z,12.68
2017-11-28T18:51:41.332Z,11.80
2017-11-28T18:54:07.641Z,13.90
2017-11-28T18:56:33.915Z,13.52
2017-11-28T18:59:00.189Z,11.68
2017-11-28T19:01:26.468Z,12.77
2017-11-28T19:03:53.104Z,12.95
2017-11-28T19:06:19.760Z,13.05
2017-11-28T19:08:46.084Z,12.30
2017-11-28T19:11:12.737Z,14.70
2017-11-28T19:13:39.037Z,13.77
2017-11-28T19:16:06.053Z,13.07
2017-11-28T19:18:32.319Z,11.48
2017-11-28T19:20:58.993Z,12.95
2017-11-28T19:23:25.320Z,14.70
2017-11-28T19:25:51.606Z,15.15
2017-11-28T19:28:18.285Z,17.25
2017-11-28T19:30:44.576Z,13.73
2017-11-28T19:33:10.937Z,12.18
2017-11-28T19:35:37.225Z,11.75
2017-11-28T19:38:03.548Z,12.35
2017-11-28T19:40:29.817Z,10.20
2017-11-28T19:42:56.094Z,9.52
2017-11-28T19:45:22.401Z,11.35
2017-11-28T19:47:48.714Z,10.38
2017-11-28T19:50:14.997Z,12.90
2017-11-28T19:52:41.323Z,11.85
2017-11-28T19:55:07.619Z,9.93
2017-11-28T19:57:34.002Z,9.13
2017-11-28T20:00:00.749Z,9.25
2017-11-28T20:02:27.433Z,9.07
2017-11-28T20:04:53.746Z,9.15
2017-11-28T20:07:20.035Z,10.40
2017-11-28T20:09:46.730Z,12.05
2017-11-28T20:12:12.993Z,9.57
2017-11-28T20:14:39.274Z,11.65
2017-11-28T20:17:05.597Z,11.70
2017-11-28T20:19:31.913Z,11.77
2017-11-28T20:21:58.667Z,10.15
2017-11-28T20:24:25.343Z,10.20
2017-11-28T20:26:51.672Z,12.07
2017-11-28T20:29:18.024Z,10.88
2017-11-28T20:31:44.378Z,10.48
2017-11-28T20:34:10.718Z,12.18
2017-11-28T20:36:37.023Z,11.40
2017-11-28T20:39:03.401Z,11.98
2017-11-28T20:41:29.665Z,10.82
2017-11-28T20:43:55.952Z,13.32
2017-11-28T20:46:22.295Z,12.40
2017-11-28T20:48:48.636Z,11.65
2017-11-28T20:51:14.964Z,12.00
2017-11-28T20:53:41.262Z,13.80
2017-11-28T20:56:07.561Z,12.27
2017-11-28T20:58:33.924Z,15.75
2017-11-28T21:01:00.207Z,14.32
2017-11-28T21:03:26.530Z,12.75
2017-11-28T21:05:52.856Z,13.25
2017-11-28T21:08:19.155Z,14.15
2017-11-28T21:10:45.468Z,16.67
2017-11-28T21:13:11.790Z,14.32
2017-11-28T21:15:38.089Z,13.85
2017-11-28T21:18:04.379Z,13.75
2017-11-28T21:20:30.725Z,13.55
2017-11-28T21:22:56.983Z,15.65
2017-11-28T21:25:23.305Z,13.30
2017-11-28T21:27:49.596Z,13.38
2017-11-28T21:30:15.861Z,14.80
2017-11-28T21:32:42.151Z,13.45
2017-11-28T21:35:08.464Z,17.12
2017-11-28T21:37:34.751Z,15.30
2017-11-28T21:40:01.053Z,17.58
2017-11-28T21:42:27.360Z,16.77
2017-11-28T21:44:53.643Z,18.70
2017-11-28T21:47:19.935Z,16.25
2017-11-28T21:49:46.225Z,18.58
2017-11-28T21:52:12.873Z,17.12
2017-11-28T21:54:39.158Z,20.08
2017-11-28T21:57:05.410Z,19.00
2017-11-28T21:59:31.693Z,20.45
2017-11-28T22:01:58.675Z,19.45
2017-11-28T22:04:24.920Z,16.55
2017-11-28T22:06:51.596Z,12.95
2017-11-28T22:09:17.899Z,12.10
2017-11-28T22:11:44.507Z,13.80
2017-11-28T22:14:10.832Z,14.10
2017-11-28T22:16:37.143Z,14.27
2017-11-28T22:19:03.427Z,13.05
2017-11-28T22:21:29.694Z,14.77
2017-11-28T22:23:56.034Z,14.15
2017-11-28T22:26:22.329Z,15.80
2017-11-28T22:28:48.608Z,15.93
2017-11-28T22:31:14.863Z,16.40
2017-11-28T22:33:41.167Z,17.98
2017-11-28T22:36:07.443Z,16.00
2017-11-28T22:38:33.681Z,14.02
2017-11-28T22:40:59.990Z,17.05
2017-11-28T22:43:26.256Z,16.12
2017-11-28T22:45:52.585Z,19.90
2017-11-28T22:48:18.855Z,16.90
2017-11-28T22:50:45.128Z,17.62
2017-11-28T22:53:11.432Z,18.48
2017-11-28T22:55:38.076Z,19.95
2017-11-28T22:58:04.732Z,16.40
2017-11-28T23:00:31.018Z,15.07
2017-11-28T23:02:57.332Z,13.35
2017-11-28T23:05:23.580Z,14.13
2017-11-28T23:07:49.877Z,17.55
2017-11-28T23:10:16.152Z,14.57
2017-11-28T23:12:42.831Z,14.65
2017-11-28T23:15:09.121Z,14.77
2017-11-28T23:17:35.782Z,17.87
2017-11-28T23:20:02.034Z,15.68
2017-11-28T23:22:28.297Z,16.20
2017-11-28T23:24:54.536Z,15.48
2017-11-28T23:27:21.190Z,16.87
2017-11-28T23:29:47.465Z,22.05
2017-11-28T23:32:13.783Z,29.02
2017-11-28T23:34:40.069Z,26.10
2017-11-28T23:37:06.355Z,25.45
2017-11-28T23:39:32.616Z,28.83
2017-11-28T23:41:58.873Z,25.17
2017-11-28T23:44:25.125Z,19.37
2017-11-28T23:46:51.408Z,24.48
2017-11-28T23:49:17.691Z,22.13
2017-11-28T23:51:43.992Z,22.65
2017-11-28T23:54:10.277Z,24.63
2017-11-28T23:56:36.536Z,23.12
2017-11-28T23:59:02.842Z,21.12
